Time;durP1;ratioP1;P1;durP2;ratioP2;P2;SDS_P1;SDS_P2;PMS_P1;PMS_P2;Temp;Humidity;BMP_temperature;BMP_pressure;BME280_temperature;BME280_humidity;BME280_pressure;Samples;Min_cycle;Max_cycle;Signal;HPM_P1;HPM_P2
2021/06/19 00:06:23;;;;;;;1999.90;999.90;;;;;;;24.60;54.08;100844.28;15428323;28;20093;-64
2021/06/19 00:13:55;;;;;;;1999.90;999.90;;;;;;;24.47;54.09;100830.56;15392812;28;20050;-65
2021/06/19 00:21:29;;;;;;;1999.90;999.90;;;;;;;24.28;54.65;100836.06;15401722;28;20090;-65
2021/06/19 00:29:01;;;;;;;1999.90;999.90;;;;;;;24.05;55.32;100834.66;15400516;28;20057;-64
2021/06/19 00:36:34;;;;;;;1999.90;999.90;;;;;;;23.96;55.63;100840.06;15410111;28;20050;-65
2021/06/19 00:44:16;;;;;;;1999.90;999.90;;;;;;;23.86;55.99;100832.41;15410957;28;20134;-64
2021/06/19 00:51:50;;;;;;;1999.90;999.90;;;;;;;23.78;56.26;100840.25;15394974;28;20419;-67
2021/06/19 00:59:22;;;;;;;1999.90;999.90;;;;;;;23.57;56.86;100832.66;15472806;23;20509;-62
2021/06/19 01:06:56;;;;;;;1999.90;999.90;;;;;;;23.46;56.88;100825.44;15481668;28;20138;-61
2021/06/19 01:14:28;;;;;;;1999.90;999.90;;;;;;;23.40;57.88;100822.22;15436028;28;20372;-60
2021/06/19 01:22:02;;;;;;;1999.90;999.90;;;;;;;23.35;57.60;100813.31;15435092;28;20051;-62
2021/06/19 01:29:35;;;;;;;1999.90;999.90;;;;;;;23.24;57.88;100814.22;15435189;28;20042;-62
2021/06/19 01:37:08;;;;;;;1999.90;999.90;;;;;;;23.14;58.29;100814.28;15434425;28;20054;-60
2021/06/19 01:44:41;;;;;;;1999.90;999.90;;;;;;;23.05;58.61;100820.44;15434771;28;20049;-62
2021/06/19 01:52:13;;;;;;;1999.90;999.90;;;;;;;22.85;58.88;100811.59;15432905;28;20042;-60
2021/06/19 01:59:46;;;;;;;1999.90;999.90;;;;;;;22.72;59.59;100813.28;15415849;28;20515;-60
2021/06/19 02:07:18;;;;;;;1999.90;999.90;;;;;;;22.59;59.63;100801.53;15432771;28;20043;-61
2021/06/19 02:14:52;;;;;;;1999.90;999.90;;;;;;;22.49;60.86;100805.22;15416141;28;20484;-62
2021/06/19 02:22:24;;;;;;;1999.90;999.90;;;;;;;22.32;61.01;100803.28;15415904;28;20066;-59
2021/06/19 02:29:57;;;;;;;1999.90;999.90;;;;;;;22.32;61.13;100794.75;15432432;28;20051;-61
2021/06/19 02:37:29;;;;;;;1999.90;999.90;;;;;;;22.20;61.21;100801.69;15431993;28;20043;-62
2021/06/19 02:45:10;;;;;;;1999.90;999.90;;;;;;;22.10;61.75;100805.38;15399711;28;20061;-60
2021/06/19 02:52:43;;;;;;;1999.90;999.90;;;;;;;22.02;62.03;100804.53;15432067;28;20510;-62
2021/06/19 03:00:19;;;;;;;1999.90;999.90;;;;;;;21.90;62.15;100805.78;15431648;28;20078;-60
2021/06/19 03:07:51;;;;;;;1999.90;999.90;;;;;;;21.87;62.28;100815.09;15430985;28;20381;-60
2021/06/19 03:15:25;;;;;;;1999.90;999.90;;;;;;;21.91;62.46;100812.28;15432484;28;20053;-61
2021/06/19 03:23:00;;;;;;;1999.90;999.90;;;;;;;21.93;63.05;100826.06;15439648;28;20043;-62
2021/06/19 03:30:39;;;;;;;1999.90;999.90;;;;;;;22.00;62.54;100818.34;15421255;28;20539;-61
2021/06/19 03:38:13;;;;;;;1999.90;999.90;;;;;;;22.06;63.03;100822.41;15408786;28;20043;-62
2021/06/19 03:45:47;;;;;;;1999.90;999.90;;;;;;;22.19;63.18;100832.13;15441243;28;20412;-61
2021/06/19 03:53:27;;;;;;;1999.90;999.90;;;;;;;22.29;63.14;100821.94;15423136;28;20039;-61
2021/06/19 04:01:44;;;;;;;1999.90;999.90;;;;;;;22.45;60.84;100828.00;15436788;28;20035;-61
2021/06/19 04:10:12;;;;;;;1999.90;999.90;;;;;;;22.84;62.08;100829.91;15425975;28;20165;-61
2021/06/19 04:17:54;;;;;;;1999.90;999.90;;;;;;;22.79;60.63;100818.91;15421736;28;20053;-62
2021/06/19 04:26:14;;;;;;;1999.90;999.90;;;;;;;23.11;60.55;100832.16;15438686;28;20057;-62
2021/06/19 04:42:18;;;;;;;1999.90;999.90;;;;;;;23.79;57.26;100841.03;15434798;28;20043;-62
2021/06/19 04:49:58;;;;;;;1999.90;999.90;;;;;;;24.04;58.34;100830.19;15419422;28;20062;-60
2021/06/19 04:57:32;;;;;;;1999.90;999.90;;;;;;;24.39;56.39;100837.63;15435757;28;20035;-62
2021/06/19 05:14:36;;;;;;;1999.90;999.90;;;;;;;25.20;54.96;100845.53;15415891;28;20047;-62
2021/06/19 05:30:56;;;;;;;1999.90;999.90;;;;;;;26.23;52.58;100858.09;15434039;28;20073;-61
2021/06/19 05:38:32;;;;;;;1999.90;999.90;;;;;;;26.65;51.80;100856.47;15434246;28;20043;-61
2021/06/19 05:46:25;;;;;;;1999.90;999.90;;;;;;;26.97;51.04;100844.34;15416687;28;20118;-61
2021/06/19 05:54:11;;;;;;;1999.90;999.90;;;;;;;27.32;48.78;100850.56;15416239;28;20089;-61
2021/06/19 06:02:27;;;;;;;1999.90;999.90;;;;;;;27.91;49.30;100843.75;15429694;28;20081;-62
2021/06/19 06:10:11;;;;;;;1999.90;999.90;;;;;;;28.41;47.25;100854.72;15420019;28;20071;-62
2021/06/19 06:25:58;;;;;;;1999.90;999.90;;;;;;;29.15;45.49;100864.47;15432712;28;20042;-64
2021/06/19 06:33:30;;;;;;;1999.90;999.90;;;;;;;30.04;44.50;100868.13;15433626;28;20043;-61
2021/06/19 06:41:04;;;;;;;1999.90;999.90;;;;;;;30.23;43.71;100874.09;15415314;28;20047;-62
2021/06/19 06:48:41;;;;;;;1999.90;999.90;;;;;;;30.44;42.44;100877.00;15415459;28;20126;-62
2021/06/19 06:56:16;;;;;;;1999.90;999.90;;;;;;;30.89;42.07;100881.53;15447038;23;20054;-65
2021/06/19 07:03:55;;;;;;;1999.90;999.90;;;;;;;32.22;40.78;100877.78;15439361;28;20050;-65
2021/06/19 07:11:35;;;;;;;1999.90;999.90;;;;;;;32.26;39.10;100866.84;15385899;28;20050;-66
2021/06/19 07:19:11;;;;;;;1999.90;999.90;;;;;;;32.71;37.90;100866.06;15369130;28;20107;-67
2021/06/19 07:27:15;;;;;;;;;;;;;;;;;;;;;
2021/06/19 07:34:56;;;;;;;1999.90;999.90;;;;;;;34.22;38.08;100859.56;15378952;28;20106;-67
2021/06/19 07:42:31;;;;;;;1999.90;999.90;;;;;;;34.33;38.40;100875.06;15378134;28;20489;-68
2021/06/19 08:06:37;;;;;;;1999.90;999.90;;;;;;;34.70;33.67;100877.66;15317652;28;20605;-66
2021/06/19 08:14:26;;;;;;;1999.90;999.90;;;;;;;35.36;35.14;100885.22;15375122;29;20051;-67
2021/06/19 08:22:29;;;;;;;1999.90;999.90;;;;;;;35.56;32.74;100879.50;15374864;28;20081;-67
2021/06/19 08:30:09;;;;;;;1999.90;999.90;;;;;;;36.87;32.86;100879.41;15355083;28;20047;-68
2021/06/19 08:37:45;;;;;;;1999.90;999.90;;;;;;;37.10;35.86;100876.72;15374825;28;20050;-66
2021/06/19 08:46:01;;;;;;;1999.90;999.90;;;;;;;37.37;32.94;100879.13;15372277;28;20051;-63
2021/06/19 08:54:05;;;;;;;1999.90;999.90;;;;;;;38.61;30.91;100875.63;15358185;29;20058;-62
2021/06/19 09:01:57;;;;;;;1999.90;999.90;;;;;;;38.53;29.93;100873.72;15374335;28;20055;-65
2021/06/19 09:09:42;;;;;;;1999.90;999.90;;;;;;;38.42;29.98;100871.56;15373875;28;20386;-67
2021/06/19 09:17:44;;;;;;;1999.90;999.90;;;;;;;39.49;29.72;100878.38;15370615;28;20062;-66
2021/06/19 09:26:01;;;;;;;1999.90;999.90;;;;;;;39.45;27.71;100872.81;15372778;28;20048;-66
2021/06/19 09:33:50;;;;;;;1999.90;999.90;;;;;;;39.16;28.23;100862.50;15372479;28;20056;-69
2021/06/19 09:41:34;;;;;;;1999.90;999.90;;;;;;;40.10;28.12;100871.69;15366496;28;20062;-68
2021/06/19 09:49:13;;;;;;;1999.90;999.90;;;;;;;39.47;24.61;100861.41;15370326;28;20421;-68
2021/06/19 09:56:48;;;;;;;1999.90;999.90;;;;;;;40.35;23.35;100860.97;15363170;28;20048;-66
2021/06/19 10:04:23;;;;;;;1999.90;999.90;;;;;;;40.79;23.44;100851.16;15359873;29;20075;-66
2021/06/19 10:11:55;;;;;;;1999.90;999.90;;;;;;;40.88;22.65;100845.00;15367386;28;20055;-68
2021/06/19 10:19:29;;;;;;;1999.90;999.90;;;;;;;40.75;22.96;100835.22;15369274;28;20054;-67
2021/06/19 10:27:01;;;;;;;1999.90;999.90;;;;;;;41.34;22.71;100828.66;15365807;28;20099;-68
2021/06/19 10:34:37;;;;;;;1999.90;999.90;;;;;;;41.75;21.57;100837.31;15379175;28;20059;-67
2021/06/19 10:42:29;;;;;;;1999.90;999.90;;;;;;;43.15;20.36;100841.28;15378884;28;20066;-67
2021/06/19 10:50:05;;;;;;;1999.90;999.90;;;;;;;42.58;21.42;100833.91;15380362;28;20044;-69
2021/06/19 10:57:42;;;;;;;1999.90;999.90;;;;;;;42.35;21.60;100825.41;15381272;28;20055;-68
2021/06/19 11:06:09;;;;;;;1999.90;999.90;;;;;;;42.13;22.19;100811.06;15380263;28;20071;-68
2021/06/19 11:13:43;;;;;;;1999.90;999.90;;;;;;;40.59;23.43;100828.16;15380771;28;20062;-67
2021/06/19 11:21:20;;;;;;;1999.90;999.90;;;;;;;41.32;24.72;100813.78;15380035;28;20051;-68
2021/06/19 11:28:52;;;;;;;1999.90;999.90;;;;;;;40.85;27.32;100802.19;15377826;28;20055;-67
2021/06/19 11:36:58;;;;;;;1999.90;999.90;;;;;;;39.69;27.89;100801.41;15376463;28;20035;-66
2021/06/19 11:44:33;;;;;;;1999.90;999.90;;;;;;;39.06;25.95;100790.31;15375775;28;20055;-67
2021/06/19 11:52:09;;;;;;;1999.90;999.90;;;;;;;39.85;25.58;100788.09;15377963;28;20394;-69
2021/06/19 11:59:41;;;;;;;1999.90;999.90;;;;;;;38.80;28.89;100790.59;15377179;28;20135;-67
2021/06/19 12:07:15;;;;;;;1999.90;999.90;;;;;;;42.11;26.23;100795.38;15376099;28;20047;-68
2021/06/19 12:14:47;;;;;;;1999.90;999.90;;;;;;;40.44;26.99;100787.59;15375118;28;20051;-67
2021/06/19 12:22:20;;;;;;;1999.90;999.90;;;;;;;42.36;25.54;100779.28;15376604;28;20134;-67
2021/06/19 12:29:54;;;;;;;1999.90;999.90;;;;;;;43.75;23.74;100781.19;15375418;28;20165;-71
2021/06/19 12:37:30;;;;;;;1999.90;999.90;;;;;;;43.21;23.85;100767.78;15373791;28;20039;-68
2021/06/19 12:45:12;;;;;;;1999.90;999.90;;;;;;;43.71;22.88;100763.88;15373453;28;20538;-68
2021/06/19 12:53:00;;;;;;;1999.90;999.90;;;;;;;42.45;25.06;100761.28;15375950;28;20055;-66
2021/06/19 13:00:41;;;;;;;1999.90;999.90;;;;;;;40.41;28.27;100765.25;15450098;23;20078;-64
2021/06/19 13:08:17;;;;;;;1999.90;999.90;;;;;;;38.41;29.71;100751.28;15437174;28;20134;-63
2021/06/19 13:15:58;;;;;;;1999.90;999.90;;;;;;;37.59;32.59;100756.25;15435138;28;20567;-63
2021/06/19 13:23:32;;;;;;;1999.90;999.90;;;;;;;36.28;39.18;100751.16;15396799;28;20043;-64
2021/06/19 13:31:05;;;;;;;1999.90;999.90;;;;;;;35.38;43.96;100750.00;15440363;28;20058;-65
2021/06/19 13:38:51;;;;;;;1999.90;999.90;;;;;;;36.98;45.67;100733.34;15409981;28;20045;-65
2021/06/19 13:46:23;;;;;;;1999.90;999.90;;;;;;;36.33;44.35;100724.25;15438641;28;20138;-63
2021/06/19 13:53:57;;;;;;;1999.90;999.90;;;;;;;37.27;37.50;100720.59;15434261;28;20381;-65
2021/06/19 14:01:29;;;;;;;1999.90;999.90;;;;;;;38.03;35.43;100709.06;15436901;28;20101;-64
2021/06/19 14:09:04;;;;;;;1999.90;999.90;;;;;;;38.41;30.47;100707.56;15438255;28;20043;-65
2021/06/19 14:16:37;;;;;;;1999.90;999.90;;;;;;;38.72;32.71;100693.31;15424594;28;20101;-64
2021/06/19 14:24:10;;;;;;;1999.90;999.90;;;;;;;38.07;34.93;100689.22;15377426;28;20047;-64
2021/06/19 14:31:43;;;;;;;1999.90;999.90;;;;;;;38.03;35.51;100690.78;15408881;28;20079;-65
2021/06/19 14:39:16;;;;;;;1999.90;999.90;;;;;;;37.91;34.96;100692.09;15368496;29;20053;-65
2021/06/19 14:46:48;;;;;;;1999.90;999.90;;;;;;;37.45;33.23;100696.13;15364103;29;20043;-64
2021/06/19 14:54:22;;;;;;;1999.90;999.90;;;;;;;37.28;35.63;100688.06;15380143;29;20047;-63
2021/06/19 15:01:54;;;;;;;1999.90;999.90;;;;;;;37.07;35.96;100680.00;15378160;29;20476;-64
2021/06/19 15:09:29;;;;;;;1999.90;999.90;;;;;;;36.88;35.16;100683.31;15362732;29;20047;-64
2021/06/19 15:17:01;;;;;;;1999.90;999.90;;;;;;;36.89;37.70;100679.13;15388948;28;20047;-63
2021/06/19 15:24:38;;;;;;;1999.90;999.90;;;;;;;36.52;36.65;100675.34;15391830;29;20047;-64
2021/06/19 15:32:11;;;;;;;1999.90;999.90;;;;;;;36.79;36.66;100673.97;15392435;29;20051;-64
2021/06/19 15:39:45;;;;;;;1999.90;999.90;;;;;;;36.50;35.16;100654.72;15391862;29;20521;-64
2021/06/19 15:47:17;;;;;;;1999.90;999.90;;;;;;;36.91;33.24;100655.34;15386819;29;20122;-65
2021/06/19 15:54:53;;;;;;;1999.90;999.90;;;;;;;37.19;34.28;100664.22;15384545;29;20504;-64
2021/06/19 16:02:25;;;;;;;1999.90;999.90;;;;;;;36.59;34.27;100651.63;15387389;28;20043;-64
2021/06/19 16:09:58;;;;;;;1999.90;999.90;;;;;;;36.72;35.43;100640.38;15370680;29;20500;-65
2021/06/19 16:17:30;;;;;;;1999.90;999.90;;;;;;;36.34;36.28;100664.84;15388346;28;20051;-64
2021/06/19 16:25:05;;;;;;;1999.90;999.90;;;;;;;35.75;35.21;100660.28;15381667;28;20048;-64
2021/06/19 16:32:38;;;;;;;1999.90;999.90;;;;;;;35.28;35.28;100676.00;15381537;29;20055;-63
2021/06/19 16:40:14;;;;;;;1999.90;999.90;;;;;;;35.28;36.95;100673.88;15383615;28;20051;-65
2021/06/19 16:47:47;;;;;;;1999.90;999.90;;;;;;;35.22;37.14;100678.81;15381141;29;20039;-64
2021/06/19 16:55:20;;;;;;;1999.90;999.90;;;;;;;35.07;37.73;100671.47;15383350;28;20110;-64
2021/06/19 17:02:52;;;;;;;1999.90;999.90;;;;;;;35.08;40.01;100662.25;15381728;28;20386;-64
2021/06/19 17:10:26;;;;;;;1999.90;999.90;;;;;;;34.92;37.45;100675.22;15379676;28;20057;-64
2021/06/19 17:17:58;;;;;;;1999.90;999.90;;;;;;;34.90;37.21;100671.22;15377355;29;20054;-64
2021/06/19 17:25:32;;;;;;;1999.90;999.90;;;;;;;34.77;37.78;100688.91;15377072;29;20441;-63
2021/06/19 17:33:04;;;;;;;1999.90;999.90;;;;;;;34.69;39.15;100694.31;15378101;28;20085;-64
2021/06/19 17:40:38;;;;;;;1999.90;999.90;;;;;;;34.14;39.66;100676.72;15375690;28;20043;-66
2021/06/19 17:48:10;;;;;;;1999.90;999.90;;;;;;;33.97;41.44;100690.06;15374606;28;20420;-64
2021/06/19 17:55:43;;;;;;;1999.90;999.90;;;;;;;33.83;41.69;100685.84;15375237;28;20044;-66
2021/06/19 18:03:16;;;;;;;1999.90;999.90;;;;;;;33.69;43.28;100692.41;15375511;28;20047;-65
2021/06/19 18:10:51;;;;;;;1999.90;999.90;;;;;;;33.69;44.32;100693.19;15358563;29;20424;-65
2021/06/19 18:18:23;;;;;;;1999.90;999.90;;;;;;;33.24;46.66;100692.19;15374872;29;20092;-66
2021/06/19 18:25:57;;;;;;;1999.90;999.90;;;;;;;32.84;49.16;100700.44;15375114;29;20150;-65
2021/06/19 18:33:29;;;;;;;1999.90;999.90;;;;;;;32.21;49.29;100716.63;15375182;28;20062;-65
2021/06/19 18:41:03;;;;;;;1999.90;999.90;;;;;;;31.60;52.22;100725.06;15373927;28;20123;-64
2021/06/19 18:48:35;;;;;;;1999.90;999.90;;;;;;;31.73;53.85;100722.84;15375834;28;20056;-66
2021/06/19 18:56:09;;;;;;;1999.90;999.90;;;;;;;31.40;54.93;100721.84;15385081;28;20046;-66
2021/06/19 19:03:41;;;;;;;1999.90;999.90;;;;;;;30.87;52.45;100713.31;15384552;28;20047;-66
2021/06/19 19:11:16;;;;;;;1999.90;999.90;;;;;;;30.69;51.13;100700.44;15381546;28;20046;-66
2021/06/19 19:18:49;;;;;;;1999.90;999.90;;;;;;;30.77;51.74;100703.03;15379655;29;20058;-65
2021/06/19 19:26:23;;;;;;;1999.90;999.90;;;;;;;30.60;50.33;100694.59;15383119;28;20041;-63
2021/06/19 19:33:56;;;;;;;1999.90;999.90;;;;;;;30.36;52.52;100707.91;15366916;29;20114;-65
2021/06/19 19:41:29;;;;;;;1999.90;999.90;;;;;;;30.00;50.08;100699.78;15382173;29;20110;-64
2021/06/19 19:49:01;;;;;;;1999.90;999.90;;;;;;;30.04;51.28;100694.72;15382000;28;20047;-64
2021/06/19 19:56:35;;;;;;;1999.90;999.90;;;;;;;29.57;50.53;100696.38;15398660;28;20110;-65
2021/06/19 20:04:08;;;;;;;1999.90;999.90;;;;;;;29.55;52.72;100687.44;15426320;28;20051;-64
2021/06/19 20:11:41;;;;;;;1999.90;999.90;;;;;;;29.31;53.57;100695.66;15429723;28;20117;-64
2021/06/19 20:19:13;;;;;;;1999.90;999.90;;;;;;;29.29;53.92;100706.81;15440635;28;20085;-64
2021/06/19 20:26:47;;;;;;;1999.90;999.90;;;;;;;28.96;54.49;100706.25;15425804;28;20044;-66
2021/06/19 20:34:19;;;;;;;1999.90;999.90;;;;;;;28.78;55.75;100690.84;15382906;28;20130;-67
2021/06/19 20:41:53;;;;;;;1999.90;999.90;;;;;;;28.60;56.69;100694.28;15430782;28;20051;-65
2021/06/19 20:49:25;;;;;;;1999.90;999.90;;;;;;;28.14;57.68;100714.50;15417620;28;20047;-65
2021/06/19 20:56:59;;;;;;;1999.90;999.90;;;;;;;28.09;57.99;100714.22;15423360;28;20097;-64
2021/06/19 21:04:31;;;;;;;1999.90;999.90;;;;;;;27.51;58.77;100709.25;15425884;28;20074;-63
2021/06/19 21:12:06;;;;;;;1999.90;999.90;;;;;;;27.79;58.12;100709.75;15403233;28;20055;-65
2021/06/19 21:19:39;;;;;;;1999.90;999.90;;;;;;;27.67;57.70;100721.97;15412897;28;20313;-63
2021/06/19 21:27:12;;;;;;;1999.90;999.90;;;;;;;27.43;59.10;100718.50;15417056;28;20058;-65
2021/06/19 21:34:44;;;;;;;1999.90;999.90;;;;;;;27.61;57.51;100715.94;15408140;28;20423;-64
2021/06/19 21:42:19;;;;;;;;;;;;;;;27.63;57.14;100718.38;15397228;28;20051;-64
2021/06/19 21:49:51;;;;;;;1999.90;999.90;;;;;;;27.60;56.39;100711.47;15407745;28;19922;-64
2021/06/19 21:57:24;;;;;;;1999.90;999.90;;;;;;;27.58;56.98;100708.25;15417940;28;20536;-64
2021/06/19 22:04:56;;;;;;;1999.90;999.90;;;;;;;27.47;57.41;100702.00;15406893;28;20051;-66
2021/06/19 22:12:30;;;;;;;;;;;;;;;27.35;58.49;100700.69;15400132;28;20042;-65
2021/06/19 22:20:03;;;;;;;1999.90;999.90;;;;;;;27.04;59.21;100688.78;15395382;28;19977;-64
2021/06/19 22:27:36;;;;;;;1999.90;999.90;;;;;;;26.67;60.01;100690.03;15374804;28;20043;-65
2021/06/19 22:35:14;;;;;;;1999.90;999.90;;;;;;;26.60;60.57;100681.66;15405379;28;20097;-64
2021/06/19 22:42:49;;;;;;;1999.90;999.90;;;;;;;26.55;60.98;100668.66;15395781;28;20047;-65
2021/06/19 22:50:21;;;;;;;1999.90;999.90;;;;;;;26.35;61.33;100651.50;15384865;28;20043;-64
2021/06/19 22:57:55;;;;;;;1999.90;999.90;;;;;;;26.26;61.79;100645.63;15426442;28;20051;-65
2021/06/19 23:05:27;;;;;;;1999.90;999.90;;;;;;;26.30;61.85;100640.59;15407778;28;20500;-65
2021/06/19 23:13:01;;;;;;;1999.90;999.90;;;;;;;25.90;63.13;100637.78;15395336;28;20051;-66
2021/06/19 23:20:33;;;;;;;1999.90;999.90;;;;;;;25.79;64.37;100631.50;15413307;28;20037;-66
2021/06/19 23:28:07;;;;;;;1999.90;999.90;;;;;;;25.69;64.08;100634.53;15405502;28;20039;-65
2021/06/19 23:35:39;;;;;;;1999.90;999.90;;;;;;;25.45;65.13;100631.75;15382560;28;20047;-66
2021/06/19 23:43:12;;;;;;;1999.90;999.90;;;;;;;25.42;64.93;100621.16;15423684;28;20051;-65
2021/06/19 23:50:44;;;;;;;1999.90;999.90;;;;;;;25.37;65.15;100632.31;15409508;28;20043;-66
2021/06/19 23:58:18;;;;;;;1999.90;999.90;;;;;;;25.21;65.66;100618.72;15411304;28;20046;-65
